Time;durP1;ratioP1;P1;durP2;ratioP2;P2;SDS_P1;SDS_P2;PMS_P1;PMS_P2;Temp;Humidity;BMP_temperature;BMP_pressure;BME280_temperature;BME280_humidity;BME280_pressure;Samples;Min_cycle;Max_cycle;Signal;HPM_P1;HPM_P2
2023/10/02 00:03:34;;;;;;;11.07;4.40;;;15.20;1.00;;;;;;6269242;22;20832;-66
2023/10/02 00:06:00;;;;;;;10.10;3.45;;;15.20;1.00;;;;;;6269534;22;20386;-66
2023/10/02 00:08:34;;;;;;;15.30;4.65;;;15.30;1.00;;;;;;6268566;22;20421;-67
2023/10/02 00:16:43;;;;;;;10.55;4.00;;;15.20;45.50;;;;;;6269743;22;20434;-66
2023/10/02 00:19:18;;;;;;;11.70;4.50;;;15.20;95.90;;;;;;6269074;22;20376;-66
2023/10/02 00:21:45;;;;;;;11.27;3.80;;;15.20;76.00;;;;;;6268950;22;20356;-67
2023/10/02 00:24:12;;;;;;;12.70;3.70;;;15.20;64.80;;;;;;6269837;22;20352;-66
2023/10/02 00:26:38;;;;;;;13.50;4.50;;;15.10;99.90;;;;;;6269676;22;20356;-66
2023/10/02 00:29:06;;;;;;;14.05;4.78;;;15.10;99.90;;;;;;6269761;22;20450;-66
2023/10/02 00:31:38;;;;;;;13.80;4.33;;;15.00;99.90;;;;;;6270131;22;20348;-66
2023/10/02 00:34:04;;;;;;;11.23;4.25;;;15.00;99.90;;;;;;6269405;22;20364;-66
2023/10/02 00:36:30;;;;;;;12.32;5.00;;;15.00;99.90;;;;;;6268816;22;20364;-66
2023/10/02 00:42:10;;;;;;;12.18;4.30;;;14.90;99.90;;;;;;6270489;22;20368;-67
2023/10/02 00:44:51;;;;;;;9.27;3.45;;;14.90;99.90;;;;;;6268539;22;20462;-67
2023/10/02 00:47:42;;;;;;;10.95;4.32;;;14.80;99.90;;;;;;6270024;22;20443;-67
2023/10/02 00:50:18;;;;;;;11.30;4.40;;;14.80;99.90;;;;;;6269264;22;20403;-66
2023/10/02 00:53:04;;;;;;;11.27;4.20;;;14.70;99.90;;;;;;6269360;22;20360;-66
2023/10/02 00:55:34;;;;;;;12.40;3.85;;;14.70;99.90;;;;;;6269311;22;20723;-66
2023/10/02 00:58:02;;;;;;;17.50;5.00;;;14.60;99.90;;;;;;6269435;22;20388;-66
2023/10/02 01:00:31;;;;;;;16.50;4.20;;;14.70;99.90;;;;;;6269017;22;20370;-66
2023/10/02 01:02:58;;;;;;;12.23;4.75;;;14.70;99.90;;;;;;6268452;22;20371;-66
2023/10/02 01:05:31;;;;;;;8.60;3.53;;;14.60;99.90;;;;;;6267731;22;21207;-66
2023/10/02 01:08:02;;;;;;;13.23;4.90;;;14.70;1.00;;;;;;6268637;22;20426;-66
2023/10/02 01:10:31;;;;;;;10.98;3.70;;;14.70;99.90;;;;;;6269073;22;20360;-66
2023/10/02 01:13:05;;;;;;;10.63;5.00;;;14.70;1.00;;;;;;6268569;22;20380;-66
2023/10/02 01:15:32;;;;;;;10.10;3.88;;;14.70;1.00;;;;;;6269449;22;20352;-66
2023/10/02 01:21:00;;;;;;;12.75;3.60;;;14.70;1.00;;;;;;6202778;22;20367;-66
2023/10/02 01:23:27;;;;;;;10.18;4.63;;;14.70;1.00;;;;;;6242788;22;20360;-66
2023/10/02 01:26:00;;;;;;;12.50;3.80;;;14.60;1.00;;;;;;6270336;22;20384;-66
2023/10/02 01:28:29;;;;;;;12.75;4.20;;;14.60;1.00;;;;;;6270369;22;20348;-66
2023/10/02 01:30:55;;;;;;;8.98;4.05;;;14.60;1.00;;;;;;6270387;22;20455;-67
2023/10/02 01:33:22;;;;;;;8.03;3.23;;;14.60;1.00;;;;;;6269824;22;20376;-66
2023/10/02 01:35:57;;;;;;;10.32;3.80;;;14.60;1.00;;;;;;6270918;22;20753;-66
2023/10/02 01:38:31;;;;;;;11.60;3.83;;;14.60;1.00;;;;;;6270759;22;20402;-66
2023/10/02 01:41:04;;;;;;;12.50;3.50;;;14.60;1.00;;;;;;6270833;22;20364;-66
2023/10/02 01:43:44;;;;;;;10.80;4.30;;;14.60;1.00;;;;;;6270372;22;20811;-66
2023/10/02 01:46:11;;;;;;;9.50;3.47;;;14.60;1.00;;;;;;6270348;22;20410;-67
2023/10/02 01:48:40;;;;;;;11.95;3.72;;;14.60;1.00;;;;;;6269703;22;20858;-66
2023/10/02 01:51:20;;;;;;;12.90;3.80;;;14.60;1.00;;;;;;6270696;22;20804;-66
2023/10/02 01:53:50;;;;;;;10.43;3.63;;;14.50;1.00;;;;;;6270554;22;20345;-66
2023/10/02 01:56:18;;;;;;;9.63;3.20;;;14.60;1.00;;;;;;6270519;22;20459;-66
2023/10/02 01:58:47;;;;;;;10.90;3.40;;;14.70;1.00;;;;;;6242820;22;20469;-66
2023/10/02 02:01:13;;;;;;;11.43;3.50;;;14.60;1.00;;;;;;6270650;22;20400;-66
2023/10/02 02:03:40;;;;;;;9.00;3.90;;;14.60;1.00;;;;;;6269989;22;20367;-66
2023/10/02 02:06:09;;;;;;;10.50;4.10;;;14.60;1.00;;;;;;6269653;22;20380;-66
2023/10/02 02:08:43;;;;;;;13.13;4.38;;;14.70;1.00;;;;;;6270149;22;20909;-66
2023/10/02 02:11:20;;;;;;;10.45;3.35;;;14.70;1.00;;;;;;6271099;22;20377;-66
2023/10/02 02:13:48;;;;;;;9.80;3.50;;;14.60;1.00;;;;;;6245964;22;20369;-66
2023/10/02 02:16:22;;;;;;;8.80;2.80;;;14.70;1.00;;;;;;6269499;22;20367;-66
2023/10/02 02:18:53;;;;;;;9.70;3.80;;;14.70;1.00;;;;;;6269769;22;20379;-66
2023/10/02 02:21:20;;;;;;;12.17;3.90;;;14.60;1.00;;;;;;6270940;22;20356;-67
2023/10/02 02:23:46;;;;;;;10.20;3.97;;;14.70;1.00;;;;;;6270368;22;20357;-66
2023/10/02 02:26:22;;;;;;;9.27;3.67;;;14.60;1.00;;;;;;6269874;22;20832;-66
2023/10/02 02:28:51;;;;;;;13.83;5.47;;;14.60;1.00;;;;;;6270250;22;20388;-66
2023/10/02 02:31:39;;;;;;;10.90;3.50;;;14.70;1.00;;;;;;6269953;22;20448;-66
2023/10/02 02:34:14;;;;;;;11.20;3.58;;;14.60;1.00;;;;;;6269522;22;20363;-66
2023/10/02 02:36:41;;;;;;;12.98;3.45;;;14.60;1.00;;;;;;6269864;22;20360;-66
2023/10/02 02:39:15;;;;;;;10.00;3.72;;;14.60;1.00;;;;;;6269827;22;20368;-66
2023/10/02 02:42:08;;;;;;;10.80;3.30;;;14.50;1.00;;;;;;6269498;22;20723;-66
2023/10/02 02:44:43;;;;;;;9.30;3.92;;;14.60;1.00;;;;;;6269426;22;20360;-66
2023/10/02 02:47:09;;;;;;;10.48;3.47;;;14.60;1.00;;;;;;6269660;22;20645;-66
2023/10/02 02:49:50;;;;;;;10.80;3.40;;;14.70;1.00;;;;;;6269873;22;20788;-66
2023/10/02 02:52:32;;;;;;;11.55;3.47;;;14.60;1.00;;;;;;6270557;22;20363;-66
2023/10/02 02:54:59;;;;;;;12.88;3.65;;;14.60;1.00;;;;;;6269359;22;20451;-66
2023/10/02 02:57:27;;;;;;;11.23;3.73;;;14.70;1.00;;;;;;6269742;22;20553;-66
2023/10/02 03:00:24;;;;;;;11.27;4.20;;;14.70;99.90;;;;;;6269830;22;20371;-66
2023/10/02 03:02:40;;;;;;;9.15;3.72;;;14.60;1.00;;;;;;6270801;22;20382;-66
2023/10/02 03:05:11;;;;;;;11.35;3.80;;;14.60;1.00;;;;;;6270865;22;20372;-65
2023/10/02 03:07:39;;;;;;;11.10;3.90;;;14.50;1.00;;;;;;6270987;22;20439;-66
2023/10/02 03:10:16;;;;;;;12.40;3.75;;;14.40;1.00;;;;;;6270802;22;20368;-66
2023/10/02 03:12:47;;;;;;;12.32;4.18;;;14.40;1.00;;;;;;6270187;22;20372;-66
2023/10/02 03:15:13;;;;;;;10.38;3.65;;;14.40;1.00;;;;;;6269051;22;20360;-67
2023/10/02 03:17:41;;;;;;;11.30;4.38;;;14.40;1.00;;;;;;6269828;22;20379;-66
2023/10/02 03:20:23;;;;;;;11.25;3.90;;;14.50;1.00;;;;;;6269872;22;20736;-66
2023/10/02 03:22:54;;;;;;;10.45;4.30;;;14.50;1.00;;;;;;6270387;22;20913;-66
2023/10/02 03:25:29;;;;;;;10.68;3.50;;;14.40;1.00;;;;;;6269966;22;20376;-66
2023/10/02 03:27:57;;;;;;;10.00;3.67;;;14.40;1.00;;;;;;6242793;22;20846;-66
2023/10/02 03:30:38;;;;;;;11.23;4.03;;;14.40;1.00;;;;;;6269455;22;20410;-66
2023/10/02 03:33:17;;;;;;;11.68;3.15;;;14.40;1.00;;;;;;6269534;22;20381;-67
2023/10/02 03:35:56;;;;;;;7.53;3.17;;;14.40;1.00;;;;;;6269615;22;20387;-66
2023/10/02 03:38:22;;;;;;;8.90;3.50;;;14.40;1.00;;;;;;6269232;22;20452;-66
2023/10/02 03:40:53;;;;;;;14.80;4.50;;;14.30;1.00;;;;;;6269903;22;20722;-67
2023/10/02 03:43:29;;;;;;;9.68;3.45;;;14.20;1.00;;;;;;6242742;22;20448;-67
2023/10/02 03:45:58;;;;;;;11.30;3.40;;;14.20;1.00;;;;;;6269433;22;20388;-66
2023/10/02 03:48:28;;;;;;;9.95;3.67;;;14.10;1.00;;;;;;6269809;22;20973;-66
2023/10/02 03:50:56;;;;;;;11.38;4.80;;;14.10;1.00;;;;;;6269592;22;20837;-66
2023/10/02 03:53:32;;;;;;;8.93;3.33;;;14.10;1.00;;;;;;6269268;22;20359;-67
2023/10/02 03:58:52;;;;;;;10.77;3.55;;;13.80;1.00;;;;;;6268980;22;20364;-67
2023/10/02 04:01:31;;;;;;;14.30;4.60;;;13.60;1.00;;;;;;6270201;22;20349;-67
2023/10/02 04:04:19;;;;;;;15.82;3.67;;;13.60;1.00;;;;;;6268854;22;20657;-67
2023/10/02 04:06:47;;;;;;;11.60;3.80;;;13.60;1.00;;;;;;6270111;22;20368;-67
2023/10/02 04:11:46;;;;;;;12.30;3.40;;;13.50;1.00;;;;;;6268810;22;20352;-66
2023/10/02 04:14:17;;;;;;;9.57;3.75;;;13.50;1.00;;;;;;6267256;22;20459;-67
2023/10/02 04:16:51;;;;;;;11.38;4.00;;;13.60;1.00;;;;;;6268672;22;20356;-66
2023/10/02 04:19:23;;;;;;;11.43;3.35;;;13.70;1.00;;;;;;6269713;22;20453;-67
2023/10/02 04:21:51;;;;;;;11.70;3.80;;;13.80;1.00;;;;;;6270374;22;20383;-66
2023/10/02 04:24:23;;;;;;;9.75;3.60;;;13.80;1.00;;;;;;6269800;22;20395;-67
2023/10/02 04:26:54;;;;;;;10.50;3.80;;;14.00;1.00;;;;;;6269154;22;20379;-67
2023/10/02 04:29:26;;;;;;;10.15;3.40;;;13.90;1.00;;;;;;6269987;22;20377;-66
2023/10/02 04:34:54;;;;;;;9.13;3.38;;;13.80;1.00;;;;;;6186790;22;20768;-66
2023/10/02 04:37:19;;;;;;;9.55;4.57;;;13.80;1.00;;;;;;6269642;22;20707;-67
2023/10/02 04:40:13;;;;;;;15.18;4.45;;;13.80;1.00;;;;;;6269722;22;20364;-67
2023/10/02 04:42:57;;;;;;;16.08;6.00;;;13.80;1.00;;;;;;6268948;22;20368;-66
2023/10/02 04:45:26;;;;;;;15.60;4.50;;;13.70;1.00;;;;;;6269424;22;20763;-66
2023/10/02 04:47:58;;;;;;;10.50;2.90;;;13.60;1.00;;;;;;6269084;22;20348;-66
2023/10/02 04:53:04;;;;;;;12.50;4.10;;;13.50;1.00;;;;;;6270404;22;20396;-66
2023/10/02 04:55:42;;;;;;;11.43;3.45;;;13.60;1.00;;;;;;6269751;22;20348;-66
2023/10/02 05:01:07;;;;;;;13.50;4.85;;;13.50;1.00;;;;;;6270034;22;20396;-66
2023/10/02 05:03:25;;;;;;;11.32;3.20;;;13.50;1.00;;;;;;6270760;22;20363;-66
2023/10/02 05:05:55;;;;;;;21.60;4.40;;;13.50;1.00;;;;;;6270933;22;20384;-66
2023/10/02 05:08:33;;;;;;;15.20;3.73;;;13.50;1.00;;;;;;6270569;22;21052;-66
2023/10/02 05:11:06;;;;;;;9.52;3.42;;;13.50;1.00;;;;;;6269977;22;20769;-66
2023/10/02 05:16:26;;;;;;;8.45;3.63;;;13.50;1.00;;;;;;6270615;22;20442;-67
2023/10/02 05:18:52;;;;;;;10.07;3.70;;;13.50;1.00;;;;;;6270815;22;20360;-67
2023/10/02 05:21:19;;;;;;;9.88;3.80;;;13.60;1.00;;;;;;6271277;22;20384;-67
2023/10/02 05:23:56;;;;;;;10.65;3.20;;;13.50;1.00;;;;;;6270276;22;20356;-67
2023/10/02 05:26:43;;;;;;;9.60;3.15;;;13.50;1.00;;;;;;6269812;22;20429;-67
2023/10/02 05:31:58;;;;;;;8.93;3.53;;;13.50;1.00;;;;;;6270105;22;20410;-67
2023/10/02 05:34:23;;;;;;;11.33;4.23;;;13.50;1.00;;;;;;6270546;22;20357;-67
2023/10/02 05:39:34;;;;;;;10.25;2.90;;;13.40;1.00;;;;;;6269540;22;20369;-66
2023/10/02 05:42:06;;;;;;;11.83;3.90;;;13.40;1.00;;;;;;6270319;22;20788;-67
2023/10/02 05:44:36;;;;;;;12.93;4.47;;;13.40;1.00;;;;;;6270158;22;20812;-67
2023/10/02 05:47:06;;;;;;;11.05;3.97;;;13.30;1.00;;;;;;6270521;22;20348;-67
2023/10/02 05:49:36;;;;;;;11.93;4.30;;;13.50;1.00;;;;;;6270114;22;20375;-67
2023/10/02 05:52:03;;;;;;;11.45;3.72;;;13.60;1.00;;;;;;6269923;22;20368;-67
2023/10/02 05:54:29;;;;;;;9.82;3.78;;;13.70;1.00;;;;;;6269589;22;20364;-67
2023/10/02 05:57:14;;;;;;;12.13;3.83;;;13.90;1.00;;;;;;6269911;22;20375;-66
2023/10/02 05:59:44;;;;;;;12.30;4.85;;;14.50;1.00;;;;;;6241519;22;20372;-69
2023/10/02 06:02:11;;;;;;;12.55;4.55;;;15.30;1.00;;;;;;6269867;22;20356;-69
2023/10/02 06:04:38;;;;;;;11.83;4.60;;;15.90;99.90;;;;;;6268722;22;20455;-69
2023/10/02 06:07:09;;;;;;;11.53;4.27;;;16.30;1.00;;;;;;6265946;22;20470;-68
2023/10/02 06:09:43;;;;;;;10.60;3.85;;;16.70;99.90;;;;;;6269081;22;20743;-68
2023/10/02 06:12:14;;;;;;;12.10;3.80;;;17.40;1.00;;;;;;6269756;22;20450;-69
2023/10/02 06:14:42;;;;;;;13.25;5.05;;;18.30;99.90;;;;;;6270349;22;20718;-69
2023/10/02 06:17:11;;;;;;;11.95;3.55;;;18.80;1.00;;;;;;6269548;22;20399;-68
2023/10/02 06:19:43;;;;;;;13.32;3.75;;;19.20;99.90;;;;;;6241637;22;20404;-68
2023/10/02 06:22:13;;;;;;;10.73;3.78;;;19.70;90.00;;;;;;6243528;22;20384;-69
2023/10/02 06:24:39;;;;;;;13.50;4.85;;;20.30;1.00;;;;;;6243164;22;20387;-69
2023/10/02 06:27:12;;;;;;;12.10;4.30;;;20.90;1.00;;;;;;6269073;22;20368;-68
2023/10/02 06:29:39;;;;;;;14.45;4.50;;;21.30;1.00;;;;;;6268763;22;20356;-69
2023/10/02 06:32:09;;;;;;;11.75;4.28;;;21.80;1.00;;;;;;6269856;22;20582;-68
2023/10/02 06:34:37;;;;;;;11.55;4.40;;;22.20;1.00;;;;;;6270144;22;20459;-69
2023/10/02 06:37:13;;;;;;;14.10;4.93;;;22.40;1.00;;;;;;6269831;22;20414;-69
2023/10/02 06:39:47;;;;;;;13.23;4.30;;;22.40;1.00;;;;;;6242884;22;20402;-69
2023/10/02 06:42:17;;;;;;;9.70;4.20;;;22.80;1.00;;;;;;6269639;22;20360;-69
2023/10/02 06:44:52;;;;;;;13.13;4.38;;;23.10;99.90;;;;;;6270501;22;20371;-69
2023/10/02 06:47:21;;;;;;;13.57;4.60;;;22.90;99.90;;;;;;6271268;22;20887;-70
2023/10/02 06:49:47;;;;;;;11.38;4.30;;;23.20;99.90;;;;;;6243772;22;20375;-69
2023/10/02 06:52:16;;;;;;;14.50;4.40;;;23.70;99.90;;;;;;6270267;22;20356;-69
2023/10/02 06:54:48;;;;;;;10.33;4.10;;;24.10;99.90;;;;;;6270381;22;20348;-69
2023/10/02 06:57:17;;;;;;;12.60;4.50;;;24.20;99.90;;;;;;6270460;22;20364;-70
2023/10/02 06:59:55;;;;;;;13.10;4.45;;;24.50;99.90;;;;;;6242966;22;20445;-69
2023/10/02 07:02:23;;;;;;;13.00;3.70;;;25.40;99.90;;;;;;6270537;22;20360;-70
2023/10/02 07:04:56;;;;;;;10.73;4.15;;;25.70;99.90;;;;;;6243249;22;20701;-69
2023/10/02 07:07:30;;;;;;;11.60;4.60;;;26.00;99.90;;;;;;6269564;22;20436;-69
2023/10/02 07:10:07;;;;;;;11.32;4.43;;;26.20;99.90;;;;;;6270197;22;20843;-69
2023/10/02 07:12:41;;;;;;;11.13;4.40;;;26.10;99.90;;;;;;6270396;22;20356;-69
2023/10/02 07:15:10;;;;;;;13.48;5.00;;;26.20;99.90;;;;;;6242855;22;20360;-69
2023/10/02 07:17:47;;;;;;;13.20;4.28;;;26.10;99.90;;;;;;6269816;22;20773;-69
2023/10/02 07:20:23;;;;;;;12.00;3.80;;;26.10;99.90;;;;;;6245178;22;20364;-70
2023/10/02 07:22:49;;;;;;;11.77;4.50;;;26.30;99.90;;;;;;6270040;22;20403;-70
2023/10/02 07:25:20;;;;;;;13.23;3.97;;;26.50;99.90;;;;;;6269130;22;20395;-70
2023/10/02 07:27:48;;;;;;;11.47;4.20;;;26.80;99.90;;;;;;6269235;22;20374;-70
2023/10/02 07:30:24;;;;;;;15.13;5.80;;;27.40;99.90;;;;;;6242223;22;20376;-70
2023/10/02 07:32:52;;;;;;;14.70;4.87;;;27.80;99.90;;;;;;6270775;22;20382;-70
2023/10/02 07:35:25;;;;;;;12.87;4.50;;;28.40;99.90;;;;;;6270838;22;20367;-69
2023/10/02 07:37:59;;;;;;;14.45;4.60;;;28.80;99.90;;;;;;6273937;22;20352;-70
2023/10/02 07:40:46;;;;;;;12.95;4.50;;;28.90;99.90;;;;;;6274157;22;20360;-69
2023/10/02 07:43:12;;;;;;;12.00;4.60;;;28.70;99.90;;;;;;6274232;22;20366;-69
2023/10/02 07:45:38;;;;;;;14.77;4.47;;;27.90;99.90;;;;;;6275923;22;20894;-70
2023/10/02 07:48:16;;;;;;;11.60;4.87;;;27.70;99.90;;;;;;6276841;22;20367;-69
2023/10/02 07:50:44;;;;;;;12.20;3.97;;;28.10;99.90;;;;;;6275025;22;20665;-69
2023/10/02 07:53:12;;;;;;;13.63;4.30;;;28.60;99.90;;;;;;6275537;22;20431;-69
2023/10/02 07:55:42;;;;;;;14.17;4.40;;;29.60;99.90;;;;;;6272387;22;20368;-69
2023/10/02 07:58:13;;;;;;;12.15;4.53;;;30.40;99.90;;;;;;6273897;22;20356;-70
2023/10/02 08:00:43;;;;;;;12.63;4.47;;;29.90;99.90;;;;;;6274994;22;20382;-69
2023/10/02 08:03:31;;;;;;;13.20;4.55;;;30.40;99.90;;;;;;6273974;22;20356;-70
2023/10/02 08:05:58;;;;;;;11.55;3.85;;;31.00;99.90;;;;;;6271869;22;20391;-70
2023/10/02 08:08:26;;;;;;;11.82;4.05;;;30.90;99.90;;;;;;6270656;22;20364;-70
2023/10/02 08:10:53;;;;;;;14.00;4.38;;;31.30;99.90;;;;;;6270477;22;20462;-70
2023/10/02 08:13:48;;;;;;;11.90;3.78;;;31.20;99.90;;;;;;6270462;22;20344;-70
2023/10/02 08:16:14;;;;;;;11.75;4.10;;;31.30;99.90;;;;;;6268643;22;20370;-70
2023/10/02 08:18:59;;;;;;;11.68;4.13;;;31.40;99.90;;;;;;6268770;22;20399;-70
2023/10/02 08:21:35;;;;;;;14.00;4.63;;;31.90;99.90;;;;;;6268840;22;20375;-69
2023/10/02 08:24:03;;;;;;;10.80;4.30;;;32.50;99.90;;;;;;6269461;22;20372;-69
2023/10/02 08:26:40;;;;;;;14.18;4.50;;;32.60;99.90;;;;;;6269648;22;20387;-70
2023/10/02 08:29:10;;;;;;;14.43;4.50;;;33.20;99.90;;;;;;6270643;22;20372;-70
2023/10/02 08:31:42;;;;;;;12.80;5.20;;;33.80;99.90;;;;;;6243286;22;20396;-71
2023/10/02 08:34:09;;;;;;;11.00;3.85;;;33.60;99.90;;;;;;6270869;22;20368;-70
2023/10/02 08:36:37;;;;;;;13.27;5.03;;;33.60;99.90;;;;;;6271060;22;20383;-70
2023/10/02 08:39:03;;;;;;;13.40;4.50;;;33.60;99.90;;;;;;6270863;22;20360;-70
2023/10/02 08:41:28;;;;;;;13.45;4.80;;;33.60;99.90;;;;;;6270822;22;20808;-70
2023/10/02 08:43:54;;;;;;;13.75;4.70;;;33.80;99.90;;;;;;6271127;22;20371;-70
2023/10/02 08:46:23;;;;;;;13.93;5.35;;;33.80;99.90;;;;;;6270329;22;20461;-72
2023/10/02 08:48:54;;;;;;;14.27;4.25;;;33.90;99.90;;;;;;6271573;22;20396;-70
2023/10/02 08:51:33;;;;;;;11.98;4.85;;;34.00;99.90;;;;;;6270087;22;20379;-70
2023/10/02 08:54:00;;;;;;;13.73;4.63;;;34.10;99.90;;;;;;6271291;22;20354;-70
2023/10/02 08:56:40;;;;;;;13.35;4.78;;;34.00;99.90;;;;;;6271298;22;20402;-70
2023/10/02 08:59:35;;;;;;;11.95;4.40;;;34.10;99.90;;;;;;6270483;22;20352;-70
2023/10/02 09:02:15;;;;;;;13.30;4.68;;;33.80;99.90;;;;;;6270792;22;20352;-70
2023/10/02 09:04:53;;;;;;;15.00;4.43;;;34.00;99.90;;;;;;6242740;22;20405;-70
2023/10/02 09:07:23;;;;;;;14.68;5.53;;;33.50;99.90;;;;;;6271395;22;20884;-70
2023/10/02 09:10:03;;;;;;;14.77;5.00;;;33.10;99.90;;;;;;6272353;22;20390;-70
2023/10/02 09:12:29;;;;;;;12.07;4.03;;;33.40;99.90;;;;;;6272561;22;20945;-70
2023/10/02 09:15:20;;;;;;;15.23;4.72;;;33.90;99.90;;;;;;6274728;22;20386;-69
2023/10/02 09:17:45;;;;;;;16.30;4.97;;;34.80;99.90;;;;;;6271550;22;20372;-70
2023/10/02 09:20:11;;;;;;;14.88;4.75;;;35.90;99.90;;;;;;6270997;22;20680;-70
2023/10/02 09:22:41;;;;;;;11.53;4.40;;;36.20;99.90;;;;;;6270580;22;20372;-70
2023/10/02 09:25:26;;;;;;;13.48;4.80;;;36.40;99.90;;;;;;6269972;22;20378;-69
2023/10/02 09:27:57;;;;;;;12.37;4.80;;;36.40;99.90;;;;;;6270636;22;20439;-73
2023/10/02 09:33:03;;;;;;;10.90;3.92;;;37.10;99.90;;;;;;6274109;22;20433;-70
2023/10/02 09:35:29;;;;;;;13.68;4.65;;;37.00;99.90;;;;;;6242300;22;20426;-70
2023/10/02 09:38:10;;;;;;;12.88;4.95;;;36.70;99.90;;;;;;6269232;22;20490;-70
2023/10/02 09:43:28;;;;;;;11.80;4.40;;;35.90;99.90;;;;;;6270250;22;20359;-70
2023/10/02 09:46:15;;;;;;;10.88;3.67;;;35.70;99.90;;;;;;6269956;22;20383;-70
2023/10/02 09:48:46;;;;;;;12.93;5.20;;;36.00;99.90;;;;;;6268927;22;20376;-71
2023/10/02 09:51:29;;;;;;;11.60;4.70;;;35.60;99.90;;;;;;6269620;22;20908;-68
2023/10/02 09:54:13;;;;;;;12.90;4.30;;;35.70;99.90;;;;;;6269830;22;20406;-68
2023/10/02 09:56:42;;;;;;;13.00;4.68;;;35.70;99.90;;;;;;6269607;22;20783;-67
2023/10/02 09:59:17;;;;;;;14.07;4.25;;;36.00;99.90;;;;;;6242645;22;20623;-70
2023/10/02 10:02:15;;;;;;;11.10;4.60;;;36.40;99.90;;;;;;6269741;22;20428;-70
2023/10/02 10:05:22;;;;;;;13.27;4.82;;;36.10;99.90;;;;;;6234539;22;20374;-70
2023/10/02 10:08:18;;;;;;;16.50;5.10;;;35.50;99.90;;;;;;6270607;22;20402;-71
2023/10/02 10:10:52;;;;;;;14.50;5.05;;;35.90;99.90;;;;;;6269960;22;20379;-71
2023/10/02 10:13:59;;;;;;;11.93;5.10;;;35.60;99.90;;;;;;6271486;22;20383;-71
2023/10/02 10:16:34;;;;;;;11.47;3.60;;;36.10;99.90;;;;;;6270313;22;20379;-70
2023/10/02 10:22:10;;;;;;;13.85;4.57;;;36.30;99.90;;;;;;6269829;22;20364;-70
2023/10/02 10:27:41;;;;;;;10.45;4.18;;;36.60;99.90;;;;;;6271821;22;20384;-70
2023/10/02 10:30:20;;;;;;;11.77;4.93;;;36.10;99.90;;;;;;6269236;22;20380;-70
2023/10/02 10:32:47;;;;;;;16.35;5.40;;;36.00;99.90;;;;;;6270073;22;20415;-70
2023/10/02 10:35:35;;;;;;;12.13;4.47;;;36.50;99.90;;;;;;6242773;22;20395;-70
2023/10/02 10:38:36;;;;;;;12.98;5.22;;;36.50;99.90;;;;;;6270083;22;20371;-70
2023/10/02 10:41:06;;;;;;;11.48;4.03;;;36.70;99.90;;;;;;6270629;22;20344;-70
2023/10/02 10:46:17;;;;;;;13.98;5.10;;;37.30;99.90;;;;;;6278471;22;20416;-70
2023/10/02 10:48:48;;;;;;;13.60;4.50;;;37.00;99.90;;;;;;6269579;22;20360;-71
2023/10/02 10:51:20;;;;;;;11.45;4.68;;;36.80;99.90;;;;;;6273006;22;20352;-70
2023/10/02 10:54:00;;;;;;;12.18;4.43;;;36.60;99.90;;;;;;6270691;22;20825;-70
2023/10/02 10:56:27;;;;;;;13.63;4.75;;;36.00;99.90;;;;;;6270476;22;20402;-70
2023/10/02 10:59:11;;;;;;;14.95;4.43;;;36.10;99.90;;;;;;6269749;22;20372;-70
2023/10/02 11:04:40;;;;;;;12.18;4.88;;;35.80;99.90;;;;;;6269675;22;20368;-71
2023/10/02 11:07:25;;;;;;;12.35;4.18;;;35.40;99.90;;;;;;6242459;22;20812;-71
2023/10/02 11:13:00;;;;;;;13.15;4.50;;;35.60;99.90;;;;;;6269712;22;20375;-71
2023/10/02 11:18:20;;;;;;;15.30;4.68;;;34.60;99.90;;;;;;6268848;22;20426;-70
2023/10/02 11:20:54;;;;;;;12.88;4.80;;;33.60;99.90;;;;;;6270259;22;20364;-71
2023/10/02 11:23:40;;;;;;;16.45;5.05;;;33.20;99.90;;;;;;6269380;22;20451;-70
2023/10/02 11:26:21;;;;;;;13.00;4.97;;;33.40;99.90;;;;;;6269224;22;20395;-70
2023/10/02 11:28:50;;;;;;;14.75;4.15;;;33.40;99.90;;;;;;6268995;22;20418;-71
2023/10/02 11:31:30;;;;;;;17.77;5.40;;;32.90;99.90;;;;;;6242798;22;20824;-70
2023/10/02 11:34:00;;;;;;;13.43;4.93;;;32.40;99.90;;;;;;6269128;22;20355;-70
2023/10/02 11:36:29;;;;;;;21.98;6.43;;;32.50;99.90;;;;;;6241547;22;20903;-71
2023/10/02 11:38:55;;;;;;;14.15;6.10;;;32.40;99.90;;;;;;6269845;22;20487;-71
2023/10/02 11:41:21;;;;;;;16.98;5.20;;;32.10;99.90;;;;;;6269940;22;20379;-70
2023/10/02 11:43:48;;;;;;;15.18;5.28;;;31.90;99.90;;;;;;6268907;22;20422;-71
2023/10/02 11:46:14;;;;;;;18.42;6.05;;;31.80;99.90;;;;;;6268913;22;20390;-71
2023/10/02 11:48:40;;;;;;;21.70;6.28;;;32.00;99.90;;;;;;6268821;22;20428;-71
2023/10/02 11:51:07;;;;;;;18.37;5.80;;;31.80;99.90;;;;;;6269246;22;20360;-71
2023/10/02 11:53:33;;;;;;;15.93;5.57;;;31.90;99.90;;;;;;6268045;22;20373;-71
2023/10/02 11:55:58;;;;;;;15.17;4.50;;;31.90;99.90;;;;;;6268169;22;20364;-70
2023/10/02 11:58:24;;;;;;;17.83;5.67;;;31.90;99.90;;;;;;6241504;22;20371;-70
2023/10/02 12:00:49;;;;;;;13.45;5.22;;;31.80;99.90;;;;;;6268755;22;20428;-70
2023/10/02 12:03:18;;;;;;;19.23;6.50;;;31.80;99.90;;;;;;6269598;22;20835;-70
2023/10/02 12:05:43;;;;;;;14.05;6.20;;;31.70;99.90;;;;;;6269425;22;20416;-70
2023/10/02 12:08:09;;;;;;;18.30;5.85;;;31.60;99.90;;;;;;6269031;22;20405;-70
2023/10/02 12:10:38;;;;;;;13.13;5.13;;;31.70;99.90;;;;;;6268156;22;21112;-71
2023/10/02 12:13:06;;;;;;;16.80;5.05;;;31.80;99.90;;;;;;6268971;22;20357;-70
2023/10/02 12:15:31;;;;;;;17.65;5.40;;;31.60;99.90;;;;;;6268679;22;20348;-70
2023/10/02 12:17:57;;;;;;;15.60;6.13;;;31.40;99.90;;;;;;6268229;22;20363;-70
2023/10/02 12:20:22;;;;;;;15.83;5.47;;;31.50;99.90;;;;;;6268796;22;20372;-69
2023/10/02 12:22:48;;;;;;;18.50;5.50;;;31.60;99.90;;;;;;6269145;22;20836;-69
2023/10/02 12:25:14;;;;;;;16.23;5.33;;;31.70;99.90;;;;;;6268221;22;20388;-69
2023/10/02 12:27:41;;;;;;;16.70;5.70;;;31.50;99.90;;;;;;6268739;22;20356;-70
2023/10/02 12:30:11;;;;;;;13.03;4.70;;;31.50;99.90;;;;;;6268846;22;20451;-70
2023/10/02 12:32:37;;;;;;;18.65;5.53;;;31.60;99.90;;;;;;6268987;22;20401;-70
2023/10/02 12:35:05;;;;;;;15.60;4.67;;;31.50;99.90;;;;;;6268866;22;20360;-70
2023/10/02 12:37:31;;;;;;;15.73;5.75;;;31.20;99.90;;;;;;6268458;22;20367;-70
2023/10/02 12:39:57;;;;;;;19.75;6.10;;;31.30;99.90;;;;;;6268501;22;20422;-70
2023/10/02 12:42:23;;;;;;;17.13;5.63;;;31.30;99.90;;;;;;6267913;22;20440;-71
2023/10/02 12:44:48;;;;;;;17.80;5.77;;;31.40;99.90;;;;;;6268868;22;20370;-71
2023/10/02 12:47:15;;;;;;;18.30;6.07;;;31.40;99.90;;;;;;6268441;22;20394;-71
2023/10/02 12:49:41;;;;;;;17.52;5.38;;;31.40;99.90;;;;;;6268806;22;20451;-71
2023/10/02 12:52:06;;;;;;;16.25;5.32;;;30.90;99.90;;;;;;6240924;22;20392;-71
2023/10/02 12:54:32;;;;;;;15.18;6.45;;;30.80;99.90;;;;;;6268297;22;20375;-71
2023/10/02 12:56:58;;;;;;;21.38;5.70;;;30.90;99.90;;;;;;6268320;22;20348;-71
2023/10/02 12:59:24;;;;;;;15.68;5.38;;;31.10;99.90;;;;;;6268038;22;20371;-71
2023/10/02 13:01:50;;;;;;;13.73;4.78;;;31.20;99.90;;;;;;6269392;22;20771;-71
2023/10/02 13:04:16;;;;;;;16.00;5.50;;;31.40;99.90;;;;;;6242800;22;20363;-71
2023/10/02 13:06:45;;;;;;;16.30;5.15;;;31.40;99.90;;;;;;6268602;22;20468;-69
2023/10/02 13:09:14;;;;;;;12.27;4.68;;;31.50;99.90;;;;;;6268147;22;20380;-70
2023/10/02 13:11:40;;;;;;;14.15;5.28;;;31.50;99.90;;;;;;6269614;22;20963;-71
2023/10/02 13:14:09;;;;;;;18.00;5.43;;;31.50;99.90;;;;;;6270241;22;20895;-71
2023/10/02 13:16:45;;;;;;;19.08;5.95;;;31.30;99.90;;;;;;6269646;22;20911;-71
2023/10/02 13:19:11;;;;;;;15.65;4.55;;;31.40;99.90;;;;;;6269849;22;20364;-71
2023/10/02 13:21:38;;;;;;;13.60;5.38;;;31.30;99.90;;;;;;6269785;22;20360;-71
2023/10/02 13:24:13;;;;;;;18.92;6.70;;;31.30;99.90;;;;;;6269680;22;20348;-71
2023/10/02 13:26:39;;;;;;;14.65;5.70;;;31.50;99.90;;;;;;6269779;22;20429;-71
2023/10/02 13:29:05;;;;;;;16.00;5.00;;;31.40;99.90;;;;;;6269720;22;20428;-70
2023/10/02 13:31:31;;;;;;;13.47;5.00;;;31.40;99.90;;;;;;6269894;22;20349;-70
2023/10/02 13:33:57;;;;;;;13.77;4.27;;;31.20;99.90;;;;;;6269615;22;20371;-70
2023/10/02 13:36:24;;;;;;;19.38;6.32;;;31.10;99.90;;;;;;6269739;22;20436;-70
2023/10/02 13:38:56;;;;;;;18.77;5.90;;;30.90;99.90;;;;;;6270300;22;20349;-69
2023/10/02 13:41:22;;;;;;;15.63;5.60;;;31.00;99.90;;;;;;6270150;22;20380;-69
2023/10/02 13:43:48;;;;;;;12.52;4.95;;;31.00;99.90;;;;;;6244751;22;20367;-69
2023/10/02 13:46:17;;;;;;;15.40;4.75;;;31.20;99.90;;;;;;6269619;22;20388;-70
2023/10/02 13:48:47;;;;;;;16.08;5.82;;;31.20;99.90;;;;;;6269741;22;20364;-70
2023/10/02 13:51:16;;;;;;;18.85;6.10;;;31.20;99.90;;;;;;6270681;22;20364;-70
2023/10/02 13:53:42;;;;;;;14.88;4.80;;;31.40;99.90;;;;;;6270491;22;20363;-70
2023/10/02 13:56:16;;;;;;;15.77;4.90;;;31.00;99.90;;;;;;6271429;22;20360;-70
2023/10/02 13:58:43;;;;;;;14.23;4.90;;;30.90;99.90;;;;;;6271511;22;20380;-70
2023/10/02 14:01:14;;;;;;;16.83;5.40;;;30.90;99.90;;;;;;6271278;22;20364;-70
2023/10/02 14:03:45;;;;;;;17.88;4.90;;;30.70;99.90;;;;;;6245981;22;20348;-70